createdAt,value
2018-09-17T00:00:58.610Z,11.50
2018-09-17T00:01:58.535Z,11.90
2018-09-17T00:02:58.524Z,11.80
2018-09-17T00:03:58.554Z,11.80
2018-09-17T00:04:58.531Z,11.40
2018-09-17T00:05:58.526Z,12.10
2018-09-17T00:06:58.528Z,12.20
2018-09-17T00:07:58.544Z,12.20
2018-09-17T00:08:58.570Z,11.20
2018-09-17T00:09:58.564Z,11.70
2018-09-17T00:10:58.582Z,12.20
2018-09-17T00:11:58.532Z,12.00
2018-09-17T00:12:58.526Z,11.70
2018-09-17T00:13:58.526Z,11.40
2018-09-17T00:14:58.533Z,12.40
2018-09-17T00:15:58.562Z,11.60
2018-09-17T00:16:58.564Z,12.40
2018-09-17T00:17:58.537Z,12.20
2018-09-17T00:18:58.553Z,12.60
2018-09-17T00:19:58.556Z,12.40
2018-09-17T00:20:58.585Z,12.30
2018-09-17T00:21:58.566Z,11.50
2018-09-17T00:22:58.572Z,12.30
2018-09-17T00:23:58.569Z,12.20
2018-09-17T00:24:58.597Z,12.30
2018-09-17T00:25:58.559Z,12.20
2018-09-17T00:26:58.549Z,12.20
2018-09-17T00:27:58.613Z,12.80
2018-09-17T00:28:58.584Z,13.20
2018-09-17T00:29:58.572Z,12.70
2018-09-17T00:30:58.569Z,11.90
2018-09-17T00:31:58.587Z,12.00
2018-09-17T00:32:58.634Z,12.60
2018-09-17T00:33:58.553Z,11.90
2018-09-17T00:34:58.556Z,13.10
2018-09-17T00:35:58.581Z,12.50
2018-09-17T00:36:58.581Z,12.40
2018-09-17T00:37:58.596Z,11.80
2018-09-17T00:38:58.579Z,12.20
2018-09-17T00:39:58.584Z,11.70
2018-09-17T00:40:58.606Z,11.70
2018-09-17T00:41:58.577Z,11.90
2018-09-17T00:42:58.594Z,12.00
2018-09-17T00:43:58.605Z,11.90
2018-09-17T00:44:58.599Z,12.10
2018-09-17T00:45:58.582Z,11.20
2018-09-17T00:46:58.598Z,11.10
2018-09-17T00:47:58.613Z,12.20
2018-09-17T00:48:58.615Z,12.30
2018-09-17T00:49:58.646Z,11.90
2018-09-17T00:50:58.635Z,11.80
2018-09-17T00:51:58.612Z,12.00
2018-09-17T00:52:58.633Z,11.70
2018-09-17T00:53:58.627Z,11.30
2018-09-17T00:54:58.620Z,11.50
2018-09-17T00:55:58.619Z,10.80
2018-09-17T00:56:58.605Z,10.90
2018-09-17T00:57:58.722Z,10.90
2018-09-17T00:58:58.606Z,11.60
2018-09-17T00:59:58.630Z,10.80
2018-09-17T01:00:58.640Z,11.20
2018-09-17T01:01:58.625Z,10.90
2018-09-17T01:02:58.623Z,11.00
2018-09-17T01:03:58.621Z,10.90
2018-09-17T01:04:58.639Z,11.50
2018-09-17T01:05:58.677Z,11.20
2018-09-17T01:06:58.623Z,11.40
2018-09-17T01:07:58.639Z,11.20
2018-09-17T01:08:58.618Z,11.60
2018-09-17T01:09:58.622Z,11.10
2018-09-17T01:10:58.767Z,11.00
2018-09-17T01:11:58.655Z,11.50
2018-09-17T01:12:58.672Z,11.70
2018-09-17T01:13:58.637Z,10.60
2018-09-17T01:14:58.654Z,11.30
2018-09-17T01:15:58.671Z,12.50
2018-09-17T01:16:58.688Z,11.60
2018-09-17T01:17:58.696Z,11.50
2018-09-17T01:18:58.651Z,11.10
2018-09-17T01:19:58.652Z,11.00
2018-09-17T01:20:58.704Z,11.60
2018-09-17T01:21:58.718Z,11.20
2018-09-17T01:22:58.655Z,10.80
2018-09-17T01:23:58.663Z,11.50
2018-09-17T01:24:58.687Z,10.50
2018-09-17T01:25:58.684Z,11.40
2018-09-17T01:26:58.659Z,11.30
2018-09-17T01:27:58.662Z,11.20
2018-09-17T01:28:58.690Z,11.70
2018-09-17T01:29:58.681Z,11.20
2018-09-17T01:30:58.680Z,11.50
2018-09-17T01:31:58.757Z,11.50
2018-09-17T01:32:58.694Z,12.00
2018-09-17T01:33:58.671Z,11.00
2018-09-17T01:34:58.670Z,11.90
2018-09-17T01:35:58.677Z,11.90
2018-09-17T01:36:58.696Z,11.40
2018-09-17T01:37:58.724Z,11.50
2018-09-17T01:38:58.746Z,11.90
2018-09-17T01:39:58.718Z,12.40
2018-09-17T01:40:58.703Z,12.40
2018-09-17T01:41:58.708Z,12.80
2018-09-17T01:42:58.690Z,12.70
2018-09-17T01:43:58.716Z,11.90
2018-09-17T01:44:58.701Z,11.90
2018-09-17T01:45:58.712Z,12.20
2018-09-17T01:46:58.705Z,11.30
2018-09-17T01:47:58.712Z,11.20
2018-09-17T01:48:58.721Z,11.90
2018-09-17T01:49:58.706Z,11.90
2018-09-17T01:50:58.715Z,11.60
2018-09-17T01:51:58.732Z,11.70
2018-09-17T01:52:58.716Z,12.50
2018-09-17T01:53:58.714Z,11.70
2018-09-17T01:54:58.733Z,11.70
2018-09-17T01:55:58.775Z,12.40
2018-09-17T01:56:58.717Z,11.60
2018-09-17T01:57:58.770Z,11.70
2018-09-17T01:58:58.755Z,12.00
2018-09-17T01:59:58.737Z,11.90
2018-09-17T02:00:58.751Z,12.50
2018-09-17T02:01:58.725Z,11.40
2018-09-17T02:02:58.734Z,10.90
2018-09-17T02:03:58.735Z,11.00
2018-09-17T02:04:58.740Z,11.80
2018-09-17T02:05:58.747Z,11.80
2018-09-17T02:06:58.839Z,12.20
2018-09-17T02:07:58.766Z,12.30
2018-09-17T02:08:58.801Z,12.00
2018-09-17T02:09:58.780Z,11.70
2018-09-17T02:10:58.753Z,12.30
2018-09-17T02:11:58.766Z,12.10
2018-09-17T02:12:58.761Z,12.10
2018-09-17T02:13:58.745Z,12.10
2018-09-17T02:14:58.765Z,12.30
2018-09-17T02:15:58.762Z,12.50
2018-09-17T02:16:58.754Z,12.00
2018-09-17T02:17:58.775Z,11.50
2018-09-17T02:18:58.774Z,12.60
2018-09-17T02:19:58.766Z,12.40
2018-09-17T02:20:58.777Z,12.10
2018-09-17T02:21:58.763Z,11.80
2018-09-17T02:22:58.778Z,12.30
2018-09-17T02:23:58.778Z,12.50
2018-09-17T02:24:58.804Z,13.30
2018-09-17T02:25:58.812Z,12.40
2018-09-17T02:26:58.788Z,13.00
2018-09-17T02:27:58.801Z,12.30
2018-09-17T02:28:58.801Z,12.30
2018-09-17T02:29:58.805Z,11.70
2018-09-17T02:30:58.794Z,12.20
2018-09-17T02:31:58.810Z,11.90
2018-09-17T02:32:58.782Z,12.20
2018-09-17T02:33:58.798Z,12.30
2018-09-17T02:34:58.779Z,12.00
2018-09-17T02:35:58.793Z,12.40
2018-09-17T02:36:58.817Z,12.30
2018-09-17T02:37:58.856Z,11.70
2018-09-17T02:38:58.809Z,11.70
2018-09-17T02:39:58.821Z,11.80
2018-09-17T02:40:58.819Z,13.00
2018-09-17T02:41:58.815Z,12.80
2018-09-17T02:42:58.798Z,12.10
2018-09-17T02:43:58.820Z,13.20
2018-09-17T02:44:58.841Z,13.30
2018-09-17T02:45:58.831Z,13.90
2018-09-17T02:46:58.839Z,13.80
2018-09-17T02:47:58.846Z,13.50
2018-09-17T02:48:58.813Z,14.40
2018-09-17T02:49:58.817Z,14.30
2018-09-17T02:50:58.830Z,13.90
2018-09-17T02:51:58.848Z,13.50
2018-09-17T02:52:58.825Z,14.50
2018-09-17T02:53:58.832Z,14.00
2018-09-17T02:54:58.839Z,14.20
2018-09-17T02:55:58.844Z,14.70
2018-09-17T02:56:58.825Z,14.50
2018-09-17T02:57:58.831Z,15.50
2018-09-17T02:58:58.855Z,13.70
2018-09-17T02:59:58.847Z,14.30
2018-09-17T03:00:58.844Z,14.20
2018-09-17T03:01:58.839Z,14.30
2018-09-17T03:02:58.870Z,14.80
2018-09-17T03:03:58.863Z,15.20
2018-09-17T03:04:58.867Z,14.60
2018-09-17T03:05:58.851Z,15.10
2018-09-17T03:06:58.874Z,15.50
2018-09-17T03:07:58.857Z,15.10
2018-09-17T03:08:58.861Z,16.30
2018-09-17T03:09:58.895Z,15.50
2018-09-17T03:10:58.888Z,15.00
2018-09-17T03:11:58.889Z,15.10
2018-09-17T03:12:58.883Z,15.10
2018-09-17T03:13:58.873Z,15.20
2018-09-17T03:14:58.885Z,15.40
2018-09-17T03:15:58.904Z,15.30
2018-09-17T03:16:58.866Z,15.10
2018-09-17T03:17:58.887Z,14.90
2018-09-17T03:18:58.910Z,14.80
2018-09-17T03:19:58.874Z,15.60
2018-09-17T03:20:58.869Z,15.30
2018-09-17T03:21:58.879Z,14.80
2018-09-17T03:22:58.886Z,14.40
2018-09-17T03:23:58.882Z,14.90
2018-09-17T03:24:58.882Z,14.80
2018-09-17T03:25:58.886Z,15.20
2018-09-17T03:26:58.895Z,14.50
2018-09-17T03:27:58.893Z,14.70
2018-09-17T03:28:58.898Z,15.00
2018-09-17T03:29:58.917Z,15.20
2018-09-17T03:30:58.880Z,14.60
2018-09-17T03:31:58.915Z,14.60
2018-09-17T03:32:58.892Z,15.60
2018-09-17T03:33:58.924Z,15.30
2018-09-17T03:34:58.881Z,15.20
2018-09-17T03:35:58.890Z,15.60
2018-09-17T03:36:58.886Z,15.20
2018-09-17T03:37:58.899Z,16.40
2018-09-17T03:38:58.918Z,15.30
2018-09-17T03:39:58.949Z,15.50
2018-09-17T03:40:58.933Z,16.00
2018-09-17T03:41:58.922Z,14.90
2018-09-17T03:42:58.915Z,14.80
2018-09-17T03:43:58.942Z,15.10
2018-09-17T03:44:58.932Z,15.00
2018-09-17T03:45:58.920Z,15.20
2018-09-17T03:46:58.929Z,15.30
2018-09-17T03:47:58.951Z,15.50
2018-09-17T03:48:58.938Z,15.20
2018-09-17T03:49:58.955Z,15.40
2018-09-17T03:50:58.923Z,14.80
2018-09-17T03:51:58.923Z,15.20
2018-09-17T03:52:58.920Z,14.80
2018-09-17T03:53:58.939Z,15.60
2018-09-17T03:54:58.924Z,14.90
2018-09-17T03:55:58.957Z,15.10
2018-09-17T03:56:58.941Z,15.40
2018-09-17T03:57:58.946Z,16.00
2018-09-17T03:58:58.943Z,16.90
2018-09-17T03:59:58.954Z,15.70
2018-09-17T04:00:58.943Z,16.20
2018-09-17T04:01:58.940Z,16.20
2018-09-17T04:02:58.959Z,17.00
2018-09-17T04:03:58.968Z,16.60
2018-09-17T04:04:58.954Z,16.30
2018-09-17T04:05:58.967Z,16.70
2018-09-17T04:06:58.951Z,17.00
2018-09-17T04:07:58.966Z,17.10
2018-09-17T04:08:58.991Z,17.20
2018-09-17T04:09:58.968Z,16.50
2018-09-17T04:10:58.976Z,16.80
2018-09-17T04:11:58.953Z,17.30
2018-09-17T04:12:58.960Z,17.40
2018-09-17T04:13:58.948Z,17.20
2018-09-17T04:14:58.956Z,16.50
2018-09-17T04:15:58.963Z,17.50
2018-09-17T04:16:58.987Z,18.10
2018-09-17T04:17:58.963Z,17.20
2018-09-17T04:18:58.965Z,16.80
2018-09-17T04:19:58.999Z,18.20
2018-09-17T04:20:58.970Z,19.00
2018-09-17T04:21:58.983Z,18.70
2018-09-17T04:22:58.976Z,18.30
2018-09-17T04:23:58.999Z,18.90
2018-09-17T04:24:59.011Z,18.40
2018-09-17T04:25:59.013Z,18.70
2018-09-17T04:26:59.042Z,18.20
2018-09-17T04:27:59.026Z,18.20
2018-09-17T04:28:58.991Z,19.20
2018-09-17T04:29:59.015Z,18.40
2018-09-17T04:30:58.992Z,18.60
2018-09-17T04:31:59.042Z,17.90
2018-09-17T04:32:59.041Z,18.20
2018-09-17T04:33:59.020Z,18.70
2018-09-17T04:34:58.999Z,17.80
2018-09-17T04:35:58.994Z,17.90
2018-09-17T04:36:58.980Z,18.10
2018-09-17T04:37:58.991Z,18.60
2018-09-17T04:38:58.997Z,17.20
2018-09-17T04:39:59.007Z,18.10
2018-09-17T04:40:59.007Z,18.30
2018-09-17T04:41:59.024Z,17.20
2018-09-17T04:42:59.011Z,17.70
2018-09-17T04:43:59.063Z,17.60
2018-09-17T04:44:59.025Z,18.60
2018-09-17T04:45:59.019Z,19.30
2018-09-17T04:46:59.041Z,19.30
2018-09-17T04:47:59.029Z,18.50
2018-09-17T04:48:59.033Z,18.90
2018-09-17T04:49:59.054Z,19.80
2018-09-17T04:50:59.019Z,19.60
2018-09-17T04:51:59.035Z,19.50
2018-09-17T04:52:59.010Z,19.60
2018-09-17T04:53:59.023Z,20.30
2018-09-17T04:54:59.091Z,20.40
2018-09-17T04:55:59.048Z,19.20
2018-09-17T04:56:59.051Z,19.50
2018-09-17T04:57:59.040Z,19.90
2018-09-17T04:58:59.073Z,19.00
2018-09-17T04:59:59.055Z,19.60
2018-09-17T05:00:59.031Z,20.30
2018-09-17T05:01:59.050Z,20.60
2018-09-17T05:02:59.037Z,19.20
2018-09-17T05:03:59.058Z,20.10
2018-09-17T05:04:59.160Z,21.00
2018-09-17T05:05:59.068Z,19.90
2018-09-17T05:06:59.032Z,19.60
2018-09-17T05:07:59.073Z,20.30
2018-09-17T05:08:59.071Z,19.90
2018-09-17T05:09:59.050Z,19.70
2018-09-17T05:10:59.050Z,20.30
2018-09-17T05:11:59.049Z,20.30
2018-09-17T05:12:59.107Z,21.20
2018-09-17T05:13:59.063Z,20.30
2018-09-17T05:14:59.071Z,20.30
2018-09-17T05:15:59.074Z,19.80
2018-09-17T05:16:59.104Z,20.80
2018-09-17T05:17:59.086Z,21.00
2018-09-17T05:18:59.063Z,22.10
2018-09-17T05:19:59.064Z,21.40
2018-09-17T05:20:59.062Z,22.00
2018-09-17T05:21:59.072Z,21.30
2018-09-17T05:22:59.076Z,21.10
2018-09-17T05:23:59.086Z,21.20
2018-09-17T05:24:59.096Z,20.00
2018-09-17T05:25:59.113Z,20.20
2018-09-17T05:26:59.094Z,20.70
2018-09-17T05:27:59.112Z,22.80
2018-09-17T05:28:59.102Z,21.50
2018-09-17T05:29:59.079Z,22.00
2018-09-17T05:30:59.159Z,21.50
2018-09-17T05:31:59.108Z,22.20
2018-09-17T05:32:59.137Z,21.30
2018-09-17T05:33:59.131Z,22.10
2018-09-17T05:34:59.124Z,22.00
2018-09-17T05:35:59.105Z,21.50
2018-09-17T05:36:59.223Z,19.80
2018-09-17T05:37:59.091Z,22.20
2018-09-17T05:38:59.092Z,22.60
2018-09-17T05:39:59.104Z,21.80
2018-09-17T05:40:59.131Z,21.40
2018-09-17T05:41:59.135Z,21.80
2018-09-17T05:42:59.151Z,21.70
2018-09-17T05:43:59.140Z,22.50
2018-09-17T05:44:59.137Z,21.70
2018-09-17T05:45:59.138Z,21.50
2018-09-17T05:46:59.124Z,21.80
2018-09-17T05:47:59.137Z,21.80
2018-09-17T05:48:59.116Z,21.20
2018-09-17T05:49:59.121Z,22.00
2018-09-17T05:50:59.137Z,21.80
2018-09-17T05:51:59.126Z,20.80
2018-09-17T05:52:59.157Z,21.80
2018-09-17T05:53:59.182Z,21.00
2018-09-17T05:54:59.237Z,20.80
2018-09-17T05:55:59.151Z,20.70
2018-09-17T05:56:59.218Z,20.80
2018-09-17T05:57:59.122Z,21.10
2018-09-17T05:58:59.172Z,20.70
2018-09-17T05:59:59.167Z,20.50
2018-09-17T06:00:59.155Z,21.70
2018-09-17T06:01:59.174Z,21.80
2018-09-17T06:02:59.170Z,21.20
2018-09-17T06:03:59.144Z,20.90
2018-09-17T06:04:59.211Z,20.30
2018-09-17T06:05:59.179Z,20.40
2018-09-17T06:06:59.291Z,20.00
2018-09-17T06:07:59.179Z,21.00
2018-09-17T06:08:59.262Z,20.10
2018-09-17T06:09:59.164Z,19.60
2018-09-17T06:10:59.217Z,20.00
2018-09-17T06:11:59.224Z,19.40
2018-09-17T06:12:59.222Z,19.70
2018-09-17T06:13:59.172Z,19.70
2018-09-17T06:14:59.180Z,18.70
2018-09-17T06:15:59.159Z,19.20
2018-09-17T06:16:59.184Z,18.30
2018-09-17T06:17:59.320Z,18.30
2018-09-17T06:18:59.237Z,19.20
2018-09-17T06:19:59.174Z,20.30
2018-09-17T06:20:59.224Z,20.40
2018-09-17T06:21:59.214Z,19.50
2018-09-17T06:22:59.201Z,20.00
2018-09-17T06:23:59.230Z,18.80
2018-09-17T06:24:59.210Z,18.30
2018-09-17T06:25:59.229Z,18.80
2018-09-17T06:26:59.198Z,19.10
2018-09-17T06:27:59.300Z,20.30
2018-09-17T06:28:59.272Z,18.10
2018-09-17T06:29:59.219Z,18.60
2018-09-17T06:30:59.720Z,18.80
2018-09-17T06:31:59.192Z,19.10
2018-09-17T06:32:59.205Z,18.50
2018-09-17T06:34:00.240Z,17.50
2018-09-17T06:34:59.233Z,18.90
2018-09-17T06:35:59.237Z,19.00
2018-09-17T06:36:59.359Z,17.70
2018-09-17T06:37:59.225Z,18.20
2018-09-17T06:38:59.469Z,19.60
2018-09-17T06:39:59.217Z,19.50
2018-09-17T06:40:59.218Z,18.60
2018-09-17T06:41:59.252Z,17.50
2018-09-17T06:42:59.351Z,17.90
2018-09-17T06:43:59.372Z,16.80
2018-09-17T06:44:59.338Z,17.40
2018-09-17T06:45:59.719Z,17.30
2018-09-17T06:46:59.476Z,17.30
2018-09-17T06:47:59.588Z,16.90
2018-09-17T06:48:59.425Z,16.40
2018-09-17T06:49:59.228Z,16.10
2018-09-17T06:50:59.318Z,16.50
2018-09-17T06:51:59.260Z,16.90
2018-09-17T06:52:59.335Z,15.90
2018-09-17T06:53:59.231Z,15.60
2018-09-17T06:54:59.298Z,14.90
2018-09-17T06:55:59.247Z,16.10
2018-09-17T06:56:59.305Z,15.00
2018-09-17T06:57:59.282Z,14.90
2018-09-17T06:58:59.392Z,14.60
2018-09-17T06:59:59.287Z,15.30
2018-09-17T07:00:59.275Z,16.20
2018-09-17T07:01:59.529Z,14.70
2018-09-17T07:02:59.299Z,16.00
2018-09-17T07:03:59.286Z,14.60
2018-09-17T07:04:59.316Z,15.60
2018-09-17T07:05:59.291Z,14.60
2018-09-17T07:06:59.323Z,14.70
2018-09-17T07:07:59.291Z,14.90
2018-09-17T07:08:59.281Z,14.50
2018-09-17T07:09:59.287Z,13.80
2018-09-17T07:10:59.295Z,14.10
2018-09-17T07:11:59.347Z,14.10
2018-09-17T07:12:59.398Z,14.60
2018-09-17T07:13:59.306Z,14.80
2018-09-17T07:14:59.357Z,15.10
2018-09-17T07:15:59.341Z,15.00
2018-09-17T07:16:59.396Z,14.40
2018-09-17T07:18:00.368Z,14.60
2018-09-17T07:18:59.404Z,14.30
2018-09-17T07:19:59.392Z,13.60
2018-09-17T07:20:59.438Z,14.50
2018-09-17T07:21:59.411Z,13.80
2018-09-17T07:22:59.398Z,13.90
2018-09-17T07:23:59.365Z,13.80
2018-09-17T07:24:59.383Z,14.10
2018-09-17T07:25:59.387Z,13.60
2018-09-17T07:27:03.487Z,14.20
2018-09-17T07:27:59.494Z,13.70
2018-09-17T07:28:59.443Z,13.10
2018-09-17T07:29:59.640Z,13.50
2018-09-17T07:30:59.535Z,13.50
2018-09-17T07:31:59.416Z,12.90
2018-09-17T07:32:59.538Z,13.10
2018-09-17T07:33:59.448Z,12.90
2018-09-17T07:34:59.468Z,13.00
2018-09-17T07:35:59.473Z,13.10
2018-09-17T07:36:59.442Z,12.70
2018-09-17T07:37:59.463Z,13.20
2018-09-17T07:38:59.457Z,13.30
2018-09-17T07:40:00.435Z,13.30
2018-09-17T07:40:59.485Z,12.70
2018-09-17T07:41:59.522Z,13.20
2018-09-17T07:42:59.555Z,12.80
2018-09-17T07:43:59.531Z,12.40
2018-09-17T07:44:59.515Z,12.80
2018-09-17T07:45:59.518Z,12.90
2018-09-17T07:46:59.551Z,12.80
2018-09-17T07:48:00.396Z,12.40
2018-09-17T07:48:59.638Z,12.60
2018-09-17T07:49:59.643Z,13.20
2018-09-17T07:50:59.783Z,13.50
2018-09-17T07:51:59.633Z,13.30
2018-09-17T07:52:59.746Z,13.80
2018-09-17T07:53:59.594Z,13.20
2018-09-17T07:54:59.609Z,12.90
2018-09-17T07:55:59.588Z,13.30
2018-09-17T07:56:59.592Z,13.30
2018-09-17T07:57:59.648Z,13.40
2018-09-17T07:58:59.605Z,13.10
2018-09-17T07:59:59.753Z,13.20
2018-09-17T08:00:59.698Z,12.70
2018-09-17T08:02:00.314Z,13.30
2018-09-17T08:02:59.647Z,12.00
2018-09-17T08:03:59.662Z,12.50
2018-09-17T08:04:59.667Z,12.80
2018-09-17T08:05:59.712Z,12.90
2018-09-17T08:06:59.690Z,13.10
2018-09-17T08:08:00.284Z,13.00
2018-09-17T08:08:59.703Z,13.30
2018-09-17T08:09:59.811Z,12.70
2018-09-17T08:10:59.766Z,12.70
2018-09-17T08:11:59.806Z,12.40
2018-09-17T08:12:59.846Z,12.60
2018-09-17T08:13:59.749Z,11.40
2018-09-17T08:14:59.745Z,11.40
2018-09-17T08:15:59.796Z,12.30
2018-09-17T08:16:59.798Z,12.10
2018-09-17T08:17:59.785Z,12.40
2018-09-17T08:18:59.777Z,12.80
2018-09-17T08:19:59.827Z,12.70
2018-09-17T08:20:59.853Z,12.60
2018-09-17T08:21:59.786Z,11.80
2018-09-17T08:22:59.822Z,12.50
2018-09-17T08:23:59.893Z,12.40
2018-09-17T08:24:59.884Z,12.20
2018-09-17T08:25:59.979Z,12.00
2018-09-17T08:26:59.902Z,11.70
2018-09-17T08:27:59.894Z,11.70
2018-09-17T08:28:59.900Z,11.90
2018-09-17T08:29:59.946Z,12.20
2018-09-17T08:30:59.918Z,12.20
2018-09-17T08:31:59.972Z,11.80
2018-09-17T08:32:59.910Z,11.10
2018-09-17T08:34:01.066Z,11.30
2018-09-17T08:34:59.990Z,11.70
2018-09-17T08:36:00.032Z,11.20
2018-09-17T08:37:00.234Z,11.30
2018-09-17T08:38:00.926Z,11.90
2018-09-17T08:38:59.988Z,11.70
2018-09-17T08:39:59.948Z,12.10
2018-09-17T08:41:00.011Z,11.50
2018-09-17T08:42:00.122Z,11.30
2018-09-17T08:43:00.036Z,11.50
2018-09-17T08:44:00.231Z,11.70
2018-09-17T08:45:00.035Z,11.40
2018-09-17T08:46:00.052Z,11.20
2018-09-17T08:47:00.192Z,11.90
2018-09-17T08:48:00.182Z,11.10
2018-09-17T08:49:00.484Z,11.60
2018-09-17T08:50:00.769Z,11.30
2018-09-17T08:51:00.202Z,11.50
2018-09-17T08:52:00.226Z,11.10
2018-09-17T08:53:00.105Z,11.00
2018-09-17T08:54:00.128Z,11.90
2018-09-17T08:55:00.138Z,11.20
2018-09-17T08:56:00.220Z,11.00
2018-09-17T08:57:00.193Z,11.70
2018-09-17T08:58:00.602Z,11.20
2018-09-17T08:59:00.351Z,10.90
2018-09-17T09:00:00.328Z,10.80
2018-09-17T09:01:00.309Z,11.40
2018-09-17T09:02:00.285Z,10.80
2018-09-17T09:03:00.197Z,10.20
2018-09-17T09:04:00.265Z,10.40
2018-09-17T09:05:00.302Z,11.20
2018-09-17T09:06:00.313Z,10.60
2018-09-17T09:07:00.654Z,10.50
2018-09-17T09:08:00.322Z,10.50
2018-09-17T09:09:00.282Z,10.00
2018-09-17T09:10:00.349Z,9.90
2018-09-17T09:11:00.292Z,9.80
2018-09-17T09:12:00.312Z,10.30
2018-09-17T09:13:00.347Z,9.60
2018-09-17T09:14:00.270Z,8.90
2018-09-17T09:15:00.370Z,9.00
2018-09-17T09:16:00.318Z,9.30
2018-09-17T09:17:00.317Z,9.40
2018-09-17T09:18:00.386Z,9.80
2018-09-17T09:19:22.328Z,9.80
2018-09-17T09:20:00.431Z,8.90
2018-09-17T09:21:00.945Z,9.30
2018-09-17T09:22:00.541Z,8.50
2018-09-17T09:23:01.334Z,8.60
2018-09-17T09:24:00.444Z,8.90
2018-09-17T09:25:00.624Z,8.40
2018-09-17T09:26:00.486Z,8.80
2018-09-17T09:27:00.478Z,9.00
2018-09-17T09:28:00.586Z,9.00
2018-09-17T09:29:00.550Z,9.20
2018-09-17T09:30:00.952Z,9.50
2018-09-17T09:32:00.598Z,8.30
2018-09-17T09:33:00.551Z,8.90
2018-09-17T09:34:00.541Z,8.40
2018-09-17T09:35:00.636Z,8.50
2018-09-17T09:36:01.840Z,8.30
2018-09-17T09:37:00.627Z,8.80
2018-09-17T09:38:00.584Z,7.90
2018-09-17T09:39:00.754Z,8.20
2018-09-17T09:40:00.654Z,8.20
2018-09-17T09:41:00.716Z,8.20
2018-09-17T09:42:00.694Z,7.60
2018-09-17T09:43:00.682Z,8.10
2018-09-17T09:44:00.666Z,7.60
2018-09-17T09:45:00.741Z,7.60
2018-09-17T09:46:00.818Z,8.10
2018-09-17T09:47:00.704Z,7.90
2018-09-17T09:48:00.846Z,7.00
2018-09-17T09:49:01.770Z,7.80
2018-09-17T09:50:01.685Z,7.50
2018-09-17T09:51:00.798Z,7.60
2018-09-17T09:52:00.796Z,7.10
2018-09-17T09:53:00.822Z,7.00
2018-09-17T09:54:00.838Z,7.30
2018-09-17T09:55:00.953Z,6.60
2018-09-17T09:56:00.876Z,7.00
2018-09-17T09:57:00.994Z,7.00
2018-09-17T09:58:03.607Z,6.80
2018-09-17T09:59:01.017Z,6.60
2018-09-17T10:00:00.900Z,6.20
2018-09-17T10:01:01.519Z,6.50
2018-09-17T10:02:00.917Z,6.40
2018-09-17T10:03:01.007Z,6.20
2018-09-17T10:04:00.942Z,5.90
2018-09-17T10:05:01.049Z,5.90
2018-09-17T10:06:01.004Z,5.90
2018-09-17T10:07:01.182Z,5.60
2018-09-17T10:08:01.060Z,5.40
2018-09-17T10:09:01.030Z,5.60
2018-09-17T10:10:01.053Z,5.60
2018-09-17T10:11:01.025Z,5.60
2018-09-17T10:12:01.176Z,5.60
2018-09-17T10:13:01.272Z,5.40
2018-09-17T10:14:01.078Z,5.60
2018-09-17T10:15:01.170Z,5.30
2018-09-17T10:16:08.873Z,5.60
2018-09-17T10:17:01.311Z,5.50
2018-09-17T10:18:01.118Z,5.30
2018-09-17T10:19:01.099Z,5.70
2018-09-17T10:20:01.143Z,5.20
2018-09-17T10:21:01.161Z,5.30
2018-09-17T10:22:01.174Z,4.90
2018-09-17T10:23:01.161Z,5.10
2018-09-17T10:24:01.204Z,4.30
2018-09-17T10:25:01.194Z,4.20
2018-09-17T10:26:01.203Z,4.30
2018-09-17T10:27:01.211Z,4.00
2018-09-17T10:28:01.351Z,4.20
2018-09-17T10:29:01.223Z,4.00
2018-09-17T10:30:01.321Z,3.90
2018-09-17T10:31:01.279Z,3.70
2018-09-17T10:32:01.983Z,3.70
2018-09-17T10:33:01.352Z,3.60
2018-09-17T10:34:01.322Z,4.10
2018-09-17T10:35:01.358Z,3.60
2018-09-17T10:36:01.351Z,3.30
2018-09-17T10:37:01.343Z,3.90
2018-09-17T10:38:01.514Z,3.50
2018-09-17T10:39:01.404Z,3.80
2018-09-17T10:40:01.430Z,3.40
2018-09-17T10:41:01.456Z,3.40
2018-09-17T10:42:04.043Z,3.50
2018-09-17T10:43:01.499Z,3.30
2018-09-17T10:44:01.514Z,3.60
2018-09-17T10:45:01.509Z,3.80
2018-09-17T10:46:01.494Z,3.40
2018-09-17T10:47:01.559Z,3.40
2018-09-17T10:48:01.555Z,3.20
2018-09-17T10:49:01.578Z,3.20
2018-09-17T10:50:01.571Z,3.50
2018-09-17T10:51:01.595Z,3.20
2018-09-17T10:52:01.619Z,3.60
2018-09-17T10:53:01.689Z,3.20
2018-09-17T10:54:01.664Z,3.70
2018-09-17T10:55:01.679Z,3.30
2018-09-17T10:56:01.672Z,3.40
2018-09-17T10:57:01.672Z,3.00
2018-09-17T10:58:01.648Z,3.30
2018-09-17T10:59:02.517Z,3.40
2018-09-17T11:03:34.756Z,2.90
2018-09-17T11:04:34.782Z,3.10
2018-09-17T11:05:34.789Z,3.30
2018-09-17T11:06:36.209Z,3.40
2018-09-17T11:07:34.813Z,3.20
2018-09-17T11:08:34.812Z,3.40
2018-09-17T11:09:34.812Z,3.00
2018-09-17T11:10:34.924Z,3.30
2018-09-17T11:11:34.848Z,3.20
2018-09-17T11:12:34.855Z,3.30
2018-09-17T11:13:34.923Z,3.20
2018-09-17T11:14:34.902Z,2.90
2018-09-17T11:15:36.018Z,3.60
2018-09-17T11:16:34.987Z,3.80
2018-09-17T11:17:35.022Z,3.30
2018-09-17T11:18:35.005Z,3.00
2018-09-17T11:19:35.259Z,3.10
2018-09-17T11:20:35.037Z,3.90
2018-09-17T11:21:35.003Z,2.80
2018-09-17T11:22:35.013Z,3.10
2018-09-17T11:23:35.069Z,3.00
2018-09-17T11:24:35.070Z,3.50
2018-09-17T11:25:35.100Z,3.30
2018-09-17T11:26:35.230Z,3.40
2018-09-17T11:27:35.115Z,3.30
2018-09-17T11:28:38.837Z,3.20
2018-09-17T11:30:50.135Z,3.10
2018-09-17T11:31:35.226Z,3.30
2018-09-17T11:35:07.510Z,3.10
2018-09-17T11:36:07.556Z,3.10
2018-09-17T11:37:10.543Z,3.60
2018-09-17T11:38:09.190Z,3.80
2018-09-17T11:39:10.822Z,3.80
2018-09-17T11:40:08.234Z,3.60
2018-09-17T11:41:07.311Z,3.40
2018-09-17T11:42:07.304Z,3.50
2018-09-17T11:43:07.312Z,3.70
2018-09-17T11:45:41.018Z,3.40
2018-09-17T11:46:41.295Z,3.90
2018-09-17T11:47:42.540Z,3.90
2018-09-17T11:48:42.237Z,3.70
2018-09-17T11:52:14.048Z,4.20
2018-09-17T11:53:14.448Z,4.10
2018-09-17T11:54:13.972Z,3.70
2018-09-17T11:55:14.482Z,3.80
2018-09-17T11:57:15.002Z,4.10
2018-09-17T11:58:14.491Z,4.10
2018-09-17T11:59:13.741Z,4.10
2018-09-17T12:00:13.609Z,3.90
2018-09-17T12:01:14.551Z,3.80
2018-09-17T12:02:14.953Z,3.60
2018-09-17T12:03:14.592Z,3.80
2018-09-17T12:04:29.888Z,3.70
2018-09-17T12:05:14.531Z,3.80
2018-09-17T12:06:13.596Z,3.20
2018-09-17T12:07:13.623Z,3.50
2018-09-17T12:08:13.578Z,3.70
2018-09-17T12:09:13.667Z,4.10
2018-09-17T12:10:13.636Z,3.50
2018-09-17T12:11:13.647Z,3.80
2018-09-17T12:12:13.664Z,4.10
2018-09-17T12:13:13.677Z,3.00
2018-09-17T12:14:13.735Z,3.00
2018-09-17T12:15:13.759Z,3.60
2018-09-17T12:16:13.698Z,3.70
2018-09-17T12:17:13.701Z,4.00
2018-09-17T12:18:13.810Z,3.60
2018-09-17T12:19:13.669Z,3.90
2018-09-17T12:20:13.761Z,4.20
2018-09-17T12:21:13.670Z,3.70
2018-09-17T12:22:13.788Z,3.70
2018-09-17T12:23:13.774Z,3.50
2018-09-17T12:24:13.798Z,3.50
2018-09-17T12:25:13.734Z,3.50
2018-09-17T12:26:13.800Z,4.00
2018-09-17T12:27:13.715Z,4.10
2018-09-17T12:28:13.760Z,4.00
2018-09-17T12:29:13.781Z,3.70
2018-09-17T12:30:13.766Z,4.60
2018-09-17T12:31:13.787Z,3.60
2018-09-17T12:32:13.809Z,4.10
2018-09-17T12:33:13.814Z,3.60
2018-09-17T12:34:13.809Z,3.50
2018-09-17T12:35:13.921Z,4.20
2018-09-17T12:36:13.811Z,4.10
2018-09-17T12:37:13.844Z,3.60
2018-09-17T12:38:13.806Z,3.80
2018-09-17T12:39:13.816Z,4.30
2018-09-17T12:40:13.825Z,4.10
2018-09-17T12:41:13.809Z,4.30
2018-09-17T12:42:13.984Z,4.20
2018-09-17T12:43:13.871Z,3.90
2018-09-17T12:44:13.885Z,4.10
2018-09-17T12:45:13.867Z,3.90
2018-09-17T12:46:13.918Z,4.50
2018-09-17T12:47:13.907Z,3.90
2018-09-17T12:48:13.927Z,4.30
2018-09-17T12:49:13.842Z,4.10
2018-09-17T12:50:13.904Z,4.30
2018-09-17T12:51:13.883Z,4.00
2018-09-17T12:52:13.866Z,4.00
2018-09-17T12:53:13.878Z,4.30
2018-09-17T12:54:13.933Z,4.20
2018-09-17T12:55:13.917Z,4.20
2018-09-17T12:56:13.904Z,4.60
2018-09-17T12:57:13.953Z,4.10
2018-09-17T12:58:13.936Z,4.00
2018-09-17T12:59:14.047Z,4.30
2018-09-17T13:00:14.362Z,4.40
2018-09-17T13:01:14.176Z,4.10
2018-09-17T13:02:13.986Z,4.10
2018-09-17T13:03:14.038Z,3.90
2018-09-17T13:04:21.648Z,5.20
2018-09-17T13:05:14.517Z,5.00
2018-09-17T13:06:14.349Z,5.20
2018-09-17T13:07:15.465Z,4.60
2018-09-17T13:08:15.438Z,4.60
2018-09-17T13:09:14.723Z,5.90
2018-09-17T13:10:14.487Z,4.50
2018-09-17T13:11:14.050Z,4.20
2018-09-17T13:12:14.048Z,4.40
2018-09-17T13:13:14.039Z,4.10
2018-09-17T13:14:14.042Z,4.20